sensor_id;sensor_type;location;lat;lon;timestamp;P1;durP1;ratioP1;P2;durP2;ratioP2
78156;SDS011;67400;49.360;8.266;2023-02-18T00:00:02;8.85;;;5.30;;
78156;SDS011;67400;49.360;8.266;2023-02-18T00:01:24;9.02;;;5.07;;
78156;SDS011;67400;49.360;8.266;2023-02-18T00:02:44;8.75;;;4.90;;
78156;SDS011;67400;49.360;8.266;2023-02-18T00:04:03;6.43;;;4.57;;
78156;SDS011;67400;49.360;8.266;2023-02-18T00:05:23;6.85;;;4.68;;
78156;SDS011;67400;49.360;8.266;2023-02-18T00:06:43;7.20;;;4.90;;
78156;SDS011;67400;49.360;8.266;2023-02-18T00:08:02;7.03;;;4.43;;
78156;SDS011;67400;49.360;8.266;2023-02-18T00:09:22;7.28;;;4.57;;
78156;SDS011;67400;49.360;8.266;2023-02-18T00:10:41;7.25;;;4.82;;
78156;SDS011;67400;49.360;8.266;2023-02-18T00:12:01;6.82;;;4.50;;
78156;SDS011;67400;49.360;8.266;2023-02-18T00:13:20;5.32;;;4.25;;
78156;SDS011;67400;49.360;8.266;2023-02-18T00:14:40;5.63;;;4.50;;
78156;SDS011;67400;49.360;8.266;2023-02-18T00:16:07;6.03;;;4.50;;
78156;SDS011;67400;49.360;8.266;2023-02-18T00:17:27;5.95;;;4.53;;
78156;SDS011;67400;49.360;8.266;2023-02-18T00:18:47;19.38;;;5.40;;
78156;SDS011;67400;49.360;8.266;2023-02-18T00:20:07;7.13;;;4.55;;
78156;SDS011;67400;49.360;8.266;2023-02-18T00:21:26;7.75;;;4.53;;
78156;SDS011;67400;49.360;8.266;2023-02-18T00:22:46;6.63;;;4.47;;
78156;SDS011;67400;49.360;8.266;2023-02-18T00:24:06;6.32;;;4.70;;
78156;SDS011;67400;49.360;8.266;2023-02-18T00:25:26;7.20;;;4.47;;
78156;SDS011;67400;49.360;8.266;2023-02-18T00:26:48;5.47;;;4.30;;
78156;SDS011;67400;49.360;8.266;2023-02-18T00:28:08;6.57;;;4.03;;
78156;SDS011;67400;49.360;8.266;2023-02-18T00:29:28;5.28;;;3.65;;
78156;SDS011;67400;49.360;8.266;2023-02-18T00:30:48;5.15;;;3.80;;
78156;SDS011;67400;49.360;8.266;2023-02-18T00:32:07;5.28;;;4.07;;
78156;SDS011;67400;49.360;8.266;2023-02-18T00:33:27;5.63;;;3.58;;
78156;SDS011;67400;49.360;8.266;2023-02-18T00:34:47;6.50;;;3.63;;
78156;SDS011;67400;49.360;8.266;2023-02-18T00:36:08;5.38;;;3.72;;
78156;SDS011;67400;49.360;8.266;2023-02-18T00:37:28;4.30;;;3.15;;
78156;SDS011;67400;49.360;8.266;2023-02-18T00:38:48;7.30;;;3.45;;
78156;SDS011;67400;49.360;8.266;2023-02-18T00:40:09;4.18;;;3.08;;
78156;SDS011;67400;49.360;8.266;2023-02-18T00:41:29;4.90;;;3.17;;
78156;SDS011;67400;49.360;8.266;2023-02-18T00:42:49;4.07;;;3.03;;
78156;SDS011;67400;49.360;8.266;2023-02-18T00:44:09;6.25;;;3.65;;
78156;SDS011;67400;49.360;8.266;2023-02-18T00:45:30;4.22;;;2.95;;
78156;SDS011;67400;49.360;8.266;2023-02-18T00:46:49;4.30;;;2.63;;
78156;SDS011;67400;49.360;8.266;2023-02-18T00:48:09;5.93;;;3.13;;
78156;SDS011;67400;49.360;8.266;2023-02-18T00:49:28;4.07;;;2.63;;
78156;SDS011;67400;49.360;8.266;2023-02-18T00:50:49;3.40;;;2.72;;
78156;SDS011;67400;49.360;8.266;2023-02-18T00:52:08;3.97;;;2.80;;
78156;SDS011;67400;49.360;8.266;2023-02-18T00:53:28;3.70;;;2.58;;
78156;SDS011;67400;49.360;8.266;2023-02-18T00:54:49;5.97;;;2.58;;
78156;SDS011;67400;49.360;8.266;2023-02-18T00:56:08;3.00;;;2.40;;
78156;SDS011;67400;49.360;8.266;2023-02-18T00:57:28;3.55;;;2.65;;
78156;SDS011;67400;49.360;8.266;2023-02-18T00:58:48;3.83;;;2.33;;
78156;SDS011;67400;49.360;8.266;2023-02-18T01:00:08;4.22;;;2.50;;
78156;SDS011;67400;49.360;8.266;2023-02-18T01:01:28;5.13;;;2.47;;
78156;SDS011;67400;49.360;8.266;2023-02-18T01:02:47;3.42;;;2.50;;
78156;SDS011;67400;49.360;8.266;2023-02-18T01:04:14;3.58;;;2.70;;
78156;SDS011;67400;49.360;8.266;2023-02-18T01:05:34;5.45;;;2.08;;
78156;SDS011;67400;49.360;8.266;2023-02-18T01:06:53;2.92;;;1.95;;
78156;SDS011;67400;49.360;8.266;2023-02-18T01:08:13;3.75;;;2.00;;
78156;SDS011;67400;49.360;8.266;2023-02-18T01:09:33;3.45;;;2.28;;
78156;SDS011;67400;49.360;8.266;2023-02-18T01:10:53;3.83;;;2.30;;
78156;SDS011;67400;49.360;8.266;2023-02-18T01:12:14;3.90;;;1.95;;
78156;SDS011;67400;49.360;8.266;2023-02-18T01:13:34;3.05;;;2.17;;
78156;SDS011;67400;49.360;8.266;2023-02-18T01:14:53;3.22;;;2.22;;
78156;SDS011;67400;49.360;8.266;2023-02-18T01:16:13;3.38;;;2.33;;
78156;SDS011;67400;49.360;8.266;2023-02-18T01:17:34;2.58;;;1.80;;
78156;SDS011;67400;49.360;8.266;2023-02-18T01:18:57;5.32;;;2.10;;
78156;SDS011;67400;49.360;8.266;2023-02-18T01:20:18;3.47;;;2.00;;
78156;SDS011;67400;49.360;8.266;2023-02-18T01:21:38;3.25;;;1.70;;
78156;SDS011;67400;49.360;8.266;2023-02-18T01:22:57;2.85;;;1.73;;
78156;SDS011;67400;49.360;8.266;2023-02-18T01:24:17;2.60;;;1.80;;
78156;SDS011;67400;49.360;8.266;2023-02-18T01:25:37;2.50;;;1.85;;
78156;SDS011;67400;49.360;8.266;2023-02-18T01:26:57;2.40;;;1.90;;
78156;SDS011;67400;49.360;8.266;2023-02-18T01:28:16;2.50;;;1.52;;
78156;SDS011;67400;49.360;8.266;2023-02-18T01:29:37;1.98;;;1.20;;
78156;SDS011;67400;49.360;8.266;2023-02-18T01:30:56;1.90;;;1.52;;
78156;SDS011;67400;49.360;8.266;2023-02-18T01:32:17;2.10;;;1.50;;
78156;SDS011;67400;49.360;8.266;2023-02-18T01:33:37;1.50;;;1.30;;
78156;SDS011;67400;49.360;8.266;2023-02-18T01:34:59;1.60;;;1.27;;
78156;SDS011;67400;49.360;8.266;2023-02-18T01:36:20;1.83;;;1.33;;
78156;SDS011;67400;49.360;8.266;2023-02-18T01:37:40;1.80;;;1.20;;
78156;SDS011;67400;49.360;8.266;2023-02-18T01:38:59;2.92;;;1.30;;
78156;SDS011;67400;49.360;8.266;2023-02-18T01:40:20;2.92;;;1.10;;
78156;SDS011;67400;49.360;8.266;2023-02-18T01:41:41;1.85;;;1.30;;
78156;SDS011;67400;49.360;8.266;2023-02-18T01:43:00;1.23;;;1.13;;
78156;SDS011;67400;49.360;8.266;2023-02-18T01:44:21;1.65;;;1.30;;
78156;SDS011;67400;49.360;8.266;2023-02-18T01:45:47;2.25;;;1.20;;
78156;SDS011;67400;49.360;8.266;2023-02-18T01:47:08;1.40;;;1.00;;
78156;SDS011;67400;49.360;8.266;2023-02-18T01:48:30;1.98;;;1.42;;
78156;SDS011;67400;49.360;8.266;2023-02-18T01:49:51;3.22;;;1.80;;
78156;SDS011;67400;49.360;8.266;2023-02-18T01:51:19;3.65;;;1.90;;
78156;SDS011;67400;49.360;8.266;2023-02-18T01:52:40;3.00;;;1.70;;
78156;SDS011;67400;49.360;8.266;2023-02-18T01:54:02;2.42;;;1.95;;
78156;SDS011;67400;49.360;8.266;2023-02-18T01:55:26;3.17;;;2.63;;
78156;SDS011;67400;49.360;8.266;2023-02-18T01:56:47;1.67;;;1.20;;
78156;SDS011;67400;49.360;8.266;2023-02-18T01:58:08;1.83;;;1.42;;
78156;SDS011;67400;49.360;8.266;2023-02-18T01:59:29;2.92;;;1.52;;
78156;SDS011;67400;49.360;8.266;2023-02-18T02:00:49;2.83;;;1.70;;
78156;SDS011;67400;49.360;8.266;2023-02-18T02:02:13;2.63;;;1.83;;
78156;SDS011;67400;49.360;8.266;2023-02-18T02:03:33;2.67;;;1.90;;
78156;SDS011;67400;49.360;8.266;2023-02-18T02:04:53;1.80;;;1.63;;
78156;SDS011;67400;49.360;8.266;2023-02-18T02:06:18;2.55;;;1.92;;
78156;SDS011;67400;49.360;8.266;2023-02-18T02:07:42;2.22;;;1.70;;
78156;SDS011;67400;49.360;8.266;2023-02-18T02:09:03;4.97;;;2.15;;
78156;SDS011;67400;49.360;8.266;2023-02-18T02:10:23;3.63;;;2.20;;
78156;SDS011;67400;49.360;8.266;2023-02-18T02:11:51;3.45;;;2.33;;
78156;SDS011;67400;49.360;8.266;2023-02-18T02:14:00;3.00;;;2.22;;
78156;SDS011;67400;49.360;8.266;2023-02-18T02:19:01;2.50;;;1.88;;
78156;SDS011;67400;49.360;8.266;2023-02-18T02:21:57;2.95;;;1.60;;
78156;SDS011;67400;49.360;8.266;2023-02-18T02:29:36;3.08;;;1.63;;
78156;SDS011;67400;49.360;8.266;2023-02-18T02:35:24;2.40;;;1.80;;
78156;SDS011;67400;49.360;8.266;2023-02-18T02:36:54;2.88;;;2.05;;
78156;SDS011;67400;49.360;8.266;2023-02-18T02:38:19;2.67;;;1.85;;
78156;SDS011;67400;49.360;8.266;2023-02-18T02:39:53;3.72;;;2.40;;
78156;SDS011;67400;49.360;8.266;2023-02-18T02:41:21;3.00;;;2.00;;
78156;SDS011;67400;49.360;8.266;2023-02-18T02:44:19;3.13;;;2.15;;
78156;SDS011;67400;49.360;8.266;2023-02-18T02:47:13;3.70;;;2.75;;
78156;SDS011;67400;49.360;8.266;2023-02-18T02:48:41;3.38;;;2.53;;
78156;SDS011;67400;49.360;8.266;2023-02-18T02:50:09;3.40;;;2.55;;
78156;SDS011;67400;49.360;8.266;2023-02-18T02:51:31;2.42;;;2.20;;
78156;SDS011;67400;49.360;8.266;2023-02-18T02:52:56;5.65;;;3.33;;
78156;SDS011;67400;49.360;8.266;2023-02-18T02:54:18;6.40;;;2.83;;
78156;SDS011;67400;49.360;8.266;2023-02-18T02:55:39;5.22;;;2.90;;
78156;SDS011;67400;49.360;8.266;2023-02-18T02:58:44;5.10;;;2.95;;
78156;SDS011;67400;49.360;8.266;2023-02-18T03:00:06;4.63;;;2.95;;
78156;SDS011;67400;49.360;8.266;2023-02-18T03:03:05;4.60;;;3.53;;
78156;SDS011;67400;49.360;8.266;2023-02-18T03:07:39;5.72;;;3.83;;
78156;SDS011;67400;49.360;8.266;2023-02-18T03:10:55;5.20;;;3.60;;
78156;SDS011;67400;49.360;8.266;2023-02-18T03:12:34;4.18;;;3.20;;
78156;SDS011;67400;49.360;8.266;2023-02-18T03:15:25;6.15;;;3.85;;
78156;SDS011;67400;49.360;8.266;2023-02-18T03:18:19;6.13;;;3.65;;
78156;SDS011;67400;49.360;8.266;2023-02-18T03:19:44;4.72;;;3.55;;
78156;SDS011;67400;49.360;8.266;2023-02-18T03:22:24;5.18;;;3.78;;
78156;SDS011;67400;49.360;8.266;2023-02-18T03:23:49;4.35;;;3.60;;
78156;SDS011;67400;49.360;8.266;2023-02-18T03:25:11;6.15;;;4.32;;
78156;SDS011;67400;49.360;8.266;2023-02-18T03:26:31;7.43;;;3.92;;
78156;SDS011;67400;49.360;8.266;2023-02-18T03:27:58;5.32;;;3.70;;
78156;SDS011;67400;49.360;8.266;2023-02-18T03:29:19;4.97;;;3.53;;
78156;SDS011;67400;49.360;8.266;2023-02-18T03:30:52;5.47;;;3.90;;
78156;SDS011;67400;49.360;8.266;2023-02-18T03:32:12;6.13;;;4.13;;
78156;SDS011;67400;49.360;8.266;2023-02-18T03:33:43;6.15;;;4.40;;
78156;SDS011;67400;49.360;8.266;2023-02-18T03:35:09;5.82;;;3.95;;
78156;SDS011;67400;49.360;8.266;2023-02-18T03:36:30;6.45;;;3.92;;
78156;SDS011;67400;49.360;8.266;2023-02-18T03:37:58;5.78;;;4.05;;
78156;SDS011;67400;49.360;8.266;2023-02-18T03:39:22;6.72;;;3.70;;
78156;SDS011;67400;49.360;8.266;2023-02-18T03:40:43;6.32;;;3.95;;
78156;SDS011;67400;49.360;8.266;2023-02-18T03:42:04;8.63;;;4.22;;
78156;SDS011;67400;49.360;8.266;2023-02-18T03:43:25;6.97;;;4.20;;
78156;SDS011;67400;49.360;8.266;2023-02-18T03:44:45;5.97;;;4.75;;
78156;SDS011;67400;49.360;8.266;2023-02-18T03:46:05;6.00;;;4.50;;
78156;SDS011;67400;49.360;8.266;2023-02-18T03:47:25;6.18;;;4.05;;
78156;SDS011;67400;49.360;8.266;2023-02-18T03:48:44;6.50;;;4.50;;
78156;SDS011;67400;49.360;8.266;2023-02-18T03:50:04;5.05;;;3.92;;
78156;SDS011;67400;49.360;8.266;2023-02-18T03:51:24;7.25;;;4.30;;
78156;SDS011;67400;49.360;8.266;2023-02-18T03:52:44;7.82;;;4.32;;
78156;SDS011;67400;49.360;8.266;2023-02-18T03:54:04;6.20;;;4.35;;
78156;SDS011;67400;49.360;8.266;2023-02-18T03:55:24;6.03;;;4.38;;
78156;SDS011;67400;49.360;8.266;2023-02-18T03:56:43;7.50;;;4.78;;
78156;SDS011;67400;49.360;8.266;2023-02-18T03:58:03;6.32;;;4.50;;
78156;SDS011;67400;49.360;8.266;2023-02-18T03:59:22;7.25;;;4.28;;
78156;SDS011;67400;49.360;8.266;2023-02-18T04:00:42;5.97;;;4.25;;
78156;SDS011;67400;49.360;8.266;2023-02-18T04:02:02;7.50;;;5.15;;
78156;SDS011;67400;49.360;8.266;2023-02-18T04:03:22;8.20;;;4.97;;
78156;SDS011;67400;49.360;8.266;2023-02-18T04:04:41;10.50;;;5.97;;
78156;SDS011;67400;49.360;8.266;2023-02-18T04:06:01;8.40;;;5.10;;
78156;SDS011;67400;49.360;8.266;2023-02-18T04:07:21;8.95;;;5.57;;
78156;SDS011;67400;49.360;8.266;2023-02-18T04:08:41;5.97;;;4.40;;
78156;SDS011;67400;49.360;8.266;2023-02-18T04:10:00;11.30;;;5.68;;
78156;SDS011;67400;49.360;8.266;2023-02-18T04:11:20;8.95;;;5.60;;
78156;SDS011;67400;49.360;8.266;2023-02-18T04:12:40;7.30;;;4.85;;
78156;SDS011;67400;49.360;8.266;2023-02-18T04:13:59;9.57;;;5.28;;
78156;SDS011;67400;49.360;8.266;2023-02-18T04:15:19;6.00;;;4.50;;
78156;SDS011;67400;49.360;8.266;2023-02-18T04:16:39;8.10;;;5.60;;
78156;SDS011;67400;49.360;8.266;2023-02-18T04:17:58;7.47;;;5.28;;
78156;SDS011;67400;49.360;8.266;2023-02-18T04:19:18;8.88;;;5.45;;
78156;SDS011;67400;49.360;8.266;2023-02-18T04:20:38;7.82;;;5.22;;
78156;SDS011;67400;49.360;8.266;2023-02-18T04:21:57;8.10;;;4.95;;
78156;SDS011;67400;49.360;8.266;2023-02-18T04:23:17;6.47;;;4.47;;
78156;SDS011;67400;49.360;8.266;2023-02-18T04:24:37;9.18;;;4.93;;
78156;SDS011;67400;49.360;8.266;2023-02-18T04:25:56;6.70;;;4.70;;
78156;SDS011;67400;49.360;8.266;2023-02-18T04:27:16;7.40;;;5.03;;
78156;SDS011;67400;49.360;8.266;2023-02-18T04:28:36;9.20;;;6.13;;
78156;SDS011;67400;49.360;8.266;2023-02-18T04:29:55;6.45;;;4.93;;
78156;SDS011;67400;49.360;8.266;2023-02-18T04:31:16;7.65;;;5.78;;
78156;SDS011;67400;49.360;8.266;2023-02-18T04:32:35;9.20;;;6.07;;
78156;SDS011;67400;49.360;8.266;2023-02-18T04:33:55;9.73;;;6.55;;
78156;SDS011;67400;49.360;8.266;2023-02-18T04:35:15;8.90;;;6.05;;
78156;SDS011;67400;49.360;8.266;2023-02-18T04:36:35;11.52;;;5.55;;
78156;SDS011;67400;49.360;8.266;2023-02-18T04:37:54;8.05;;;5.68;;
78156;SDS011;67400;49.360;8.266;2023-02-18T04:39:14;10.32;;;6.35;;
78156;SDS011;67400;49.360;8.266;2023-02-18T04:40:34;8.43;;;6.05;;
78156;SDS011;67400;49.360;8.266;2023-02-18T04:41:54;8.40;;;6.05;;
78156;SDS011;67400;49.360;8.266;2023-02-18T04:43:13;9.00;;;6.38;;
78156;SDS011;67400;49.360;8.266;2023-02-18T04:44:34;8.73;;;6.55;;
78156;SDS011;67400;49.360;8.266;2023-02-18T04:45:53;9.05;;;6.45;;
78156;SDS011;67400;49.360;8.266;2023-02-18T04:47:13;9.20;;;5.80;;
78156;SDS011;67400;49.360;8.266;2023-02-18T04:48:33;9.80;;;6.30;;
78156;SDS011;67400;49.360;8.266;2023-02-18T04:49:52;9.05;;;5.70;;
78156;SDS011;67400;49.360;8.266;2023-02-18T04:51:12;9.18;;;5.95;;
78156;SDS011;67400;49.360;8.266;2023-02-18T04:52:32;9.32;;;6.00;;
78156;SDS011;67400;49.360;8.266;2023-02-18T04:53:51;10.77;;;5.85;;
78156;SDS011;67400;49.360;8.266;2023-02-18T04:55:11;8.43;;;6.05;;
78156;SDS011;67400;49.360;8.266;2023-02-18T04:56:31;9.73;;;6.22;;
78156;SDS011;67400;49.360;8.266;2023-02-18T04:57:50;8.90;;;6.22;;
78156;SDS011;67400;49.360;8.266;2023-02-18T04:59:10;12.98;;;6.80;;
78156;SDS011;67400;49.360;8.266;2023-02-18T05:00:30;11.38;;;6.93;;
78156;SDS011;67400;49.360;8.266;2023-02-18T05:01:49;11.25;;;6.65;;
78156;SDS011;67400;49.360;8.266;2023-02-18T05:03:09;13.07;;;6.43;;
78156;SDS011;67400;49.360;8.266;2023-02-18T05:04:28;8.77;;;6.03;;
78156;SDS011;67400;49.360;8.266;2023-02-18T05:05:48;9.30;;;6.38;;
78156;SDS011;67400;49.360;8.266;2023-02-18T05:07:08;9.32;;;5.82;;
78156;SDS011;67400;49.360;8.266;2023-02-18T05:08:28;10.18;;;6.22;;
78156;SDS011;67400;49.360;8.266;2023-02-18T05:09:48;11.80;;;6.78;;
78156;SDS011;67400;49.360;8.266;2023-02-18T05:11:08;10.73;;;6.28;;
78156;SDS011;67400;49.360;8.266;2023-02-18T05:12:28;12.43;;;7.25;;
78156;SDS011;67400;49.360;8.266;2023-02-18T05:13:47;9.32;;;6.30;;
78156;SDS011;67400;49.360;8.266;2023-02-18T05:15:07;9.85;;;6.32;;
78156;SDS011;67400;49.360;8.266;2023-02-18T05:16:27;11.30;;;6.82;;
78156;SDS011;67400;49.360;8.266;2023-02-18T05:17:46;10.43;;;7.22;;
78156;SDS011;67400;49.360;8.266;2023-02-18T05:19:06;9.27;;;6.95;;
78156;SDS011;67400;49.360;8.266;2023-02-18T05:20:26;11.27;;;6.97;;
78156;SDS011;67400;49.360;8.266;2023-02-18T05:21:46;9.52;;;6.38;;
78156;SDS011;67400;49.360;8.266;2023-02-18T05:23:06;8.98;;;6.13;;
78156;SDS011;67400;49.360;8.266;2023-02-18T05:24:26;9.90;;;6.57;;
78156;SDS011;67400;49.360;8.266;2023-02-18T05:25:46;12.40;;;6.63;;
78156;SDS011;67400;49.360;8.266;2023-02-18T05:27:06;9.80;;;6.78;;
78156;SDS011;67400;49.360;8.266;2023-02-18T05:28:25;12.55;;;6.80;;
78156;SDS011;67400;49.360;8.266;2023-02-18T05:29:45;9.63;;;6.43;;
78156;SDS011;67400;49.360;8.266;2023-02-18T05:31:05;10.77;;;7.00;;
78156;SDS011;67400;49.360;8.266;2023-02-18T05:32:25;10.75;;;6.80;;
78156;SDS011;67400;49.360;8.266;2023-02-18T05:33:44;10.10;;;7.20;;
78156;SDS011;67400;49.360;8.266;2023-02-18T05:35:04;10.35;;;7.25;;
78156;SDS011;67400;49.360;8.266;2023-02-18T05:36:24;9.95;;;6.90;;
78156;SDS011;67400;49.360;8.266;2023-02-18T05:37:43;9.93;;;6.35;;
78156;SDS011;67400;49.360;8.266;2023-02-18T05:39:03;11.20;;;7.10;;
78156;SDS011;67400;49.360;8.266;2023-02-18T05:40:22;9.27;;;6.30;;
78156;SDS011;67400;49.360;8.266;2023-02-18T05:41:42;11.52;;;6.85;;
78156;SDS011;67400;49.360;8.266;2023-02-18T05:43:02;10.32;;;7.22;;
78156;SDS011;67400;49.360;8.266;2023-02-18T05:44:21;10.05;;;7.15;;
78156;SDS011;67400;49.360;8.266;2023-02-18T05:45:48;11.35;;;6.78;;
78156;SDS011;67400;49.360;8.266;2023-02-18T05:47:09;11.15;;;7.45;;
78156;SDS011;67400;49.360;8.266;2023-02-18T05:48:29;10.82;;;6.65;;
78156;SDS011;67400;49.360;8.266;2023-02-18T05:49:49;10.30;;;7.03;;
78156;SDS011;67400;49.360;8.266;2023-02-18T05:51:08;11.43;;;6.72;;
78156;SDS011;67400;49.360;8.266;2023-02-18T05:52:28;10.52;;;6.88;;
78156;SDS011;67400;49.360;8.266;2023-02-18T05:53:48;10.45;;;6.65;;
78156;SDS011;67400;49.360;8.266;2023-02-18T05:55:07;11.68;;;7.30;;
78156;SDS011;67400;49.360;8.266;2023-02-18T05:56:27;11.25;;;6.47;;
78156;SDS011;67400;49.360;8.266;2023-02-18T05:57:47;9.70;;;6.78;;
78156;SDS011;67400;49.360;8.266;2023-02-18T05:59:07;9.30;;;6.55;;
78156;SDS011;67400;49.360;8.266;2023-02-18T06:00:26;14.82;;;6.90;;
78156;SDS011;67400;49.360;8.266;2023-02-18T06:02:01;9.75;;;6.82;;
78156;SDS011;67400;49.360;8.266;2023-02-18T06:03:21;10.35;;;7.00;;
78156;SDS011;67400;49.360;8.266;2023-02-18T06:04:40;10.25;;;6.80;;
78156;SDS011;67400;49.360;8.266;2023-02-18T06:06:00;9.80;;;6.50;;
78156;SDS011;67400;49.360;8.266;2023-02-18T06:07:20;11.77;;;7.32;;
78156;SDS011;67400;49.360;8.266;2023-02-18T06:08:40;11.23;;;7.00;;
78156;SDS011;67400;49.360;8.266;2023-02-18T06:10:00;8.98;;;6.35;;
78156;SDS011;67400;49.360;8.266;2023-02-18T06:11:20;10.15;;;6.80;;
78156;SDS011;67400;49.360;8.266;2023-02-18T06:12:39;9.75;;;7.00;;
78156;SDS011;67400;49.360;8.266;2023-02-18T06:13:59;11.27;;;6.85;;
78156;SDS011;67400;49.360;8.266;2023-02-18T06:15:19;10.63;;;6.47;;
78156;SDS011;67400;49.360;8.266;2023-02-18T06:16:38;11.13;;;7.40;;
78156;SDS011;67400;49.360;8.266;2023-02-18T06:17:58;11.63;;;6.53;;
78156;SDS011;67400;49.360;8.266;2023-02-18T06:19:18;10.00;;;6.35;;
78156;SDS011;67400;49.360;8.266;2023-02-18T06:20:38;10.68;;;7.18;;
78156;SDS011;67400;49.360;8.266;2023-02-18T06:21:58;9.95;;;6.72;;
78156;SDS011;67400;49.360;8.266;2023-02-18T06:23:17;10.32;;;6.70;;
78156;SDS011;67400;49.360;8.266;2023-02-18T06:24:37;9.75;;;6.70;;
78156;SDS011;67400;49.360;8.266;2023-02-18T06:25:57;10.20;;;6.93;;
78156;SDS011;67400;49.360;8.266;2023-02-18T06:27:16;9.90;;;6.55;;
78156;SDS011;67400;49.360;8.266;2023-02-18T06:28:36;12.57;;;7.00;;
78156;SDS011;67400;49.360;8.266;2023-02-18T06:29:56;12.70;;;6.72;;
78156;SDS011;67400;49.360;8.266;2023-02-18T06:31:15;10.10;;;6.32;;
78156;SDS011;67400;49.360;8.266;2023-02-18T06:32:35;9.98;;;7.35;;
78156;SDS011;67400;49.360;8.266;2023-02-18T06:33:55;9.25;;;5.90;;
78156;SDS011;67400;49.360;8.266;2023-02-18T06:35:14;11.40;;;5.88;;
78156;SDS011;67400;49.360;8.266;2023-02-18T06:36:34;10.32;;;6.38;;
78156;SDS011;67400;49.360;8.266;2023-02-18T06:37:54;11.63;;;6.55;;
78156;SDS011;67400;49.360;8.266;2023-02-18T06:39:13;10.95;;;7.22;;
78156;SDS011;67400;49.360;8.266;2023-02-18T06:40:33;11.13;;;6.32;;
78156;SDS011;67400;49.360;8.266;2023-02-18T06:41:53;8.75;;;5.97;;
78156;SDS011;67400;49.360;8.266;2023-02-18T06:43:13;10.15;;;6.68;;
78156;SDS011;67400;49.360;8.266;2023-02-18T06:44:33;10.73;;;6.35;;
78156;SDS011;67400;49.360;8.266;2023-02-18T06:45:53;9.05;;;6.20;;
78156;SDS011;67400;49.360;8.266;2023-02-18T06:47:12;10.68;;;6.40;;
78156;SDS011;67400;49.360;8.266;2023-02-18T06:48:32;9.85;;;5.47;;
78156;SDS011;67400;49.360;8.266;2023-02-18T06:49:52;9.52;;;6.32;;
78156;SDS011;67400;49.360;8.266;2023-02-18T06:51:11;9.30;;;6.30;;
78156;SDS011;67400;49.360;8.266;2023-02-18T06:52:32;9.05;;;6.22;;
78156;SDS011;67400;49.360;8.266;2023-02-18T06:53:52;8.55;;;6.25;;
78156;SDS011;67400;49.360;8.266;2023-02-18T06:55:12;9.73;;;5.95;;
78156;SDS011;67400;49.360;8.266;2023-02-18T06:56:31;9.50;;;5.80;;
78156;SDS011;67400;49.360;8.266;2023-02-18T06:57:51;8.73;;;5.80;;
78156;SDS011;67400;49.360;8.266;2023-02-18T06:59:11;9.52;;;5.93;;
78156;SDS011;67400;49.360;8.266;2023-02-18T07:00:31;8.98;;;5.80;;
78156;SDS011;67400;49.360;8.266;2023-02-18T07:01:51;8.73;;;5.47;;
78156;SDS011;67400;49.360;8.266;2023-02-18T07:03:11;8.77;;;5.63;;
78156;SDS011;67400;49.360;8.266;2023-02-18T07:04:32;8.25;;;5.28;;
78156;SDS011;67400;49.360;8.266;2023-02-18T07:05:52;7.70;;;5.18;;
78156;SDS011;67400;49.360;8.266;2023-02-18T07:07:11;8.98;;;5.45;;
78156;SDS011;67400;49.360;8.266;2023-02-18T07:08:31;8.50;;;5.90;;
78156;SDS011;67400;49.360;8.266;2023-02-18T07:09:53;9.73;;;5.45;;
78156;SDS011;67400;49.360;8.266;2023-02-18T07:11:13;10.35;;;5.45;;
78156;SDS011;67400;49.360;8.266;2023-02-18T07:12:33;8.80;;;5.55;;
78156;SDS011;67400;49.360;8.266;2023-02-18T07:13:52;8.95;;;4.90;;
78156;SDS011;67400;49.360;8.266;2023-02-18T07:15:12;10.80;;;5.03;;
78156;SDS011;67400;49.360;8.266;2023-02-18T07:16:31;7.35;;;5.20;;
78156;SDS011;67400;49.360;8.266;2023-02-18T07:17:51;8.05;;;5.07;;
78156;SDS011;67400;49.360;8.266;2023-02-18T07:19:12;9.98;;;5.07;;
78156;SDS011;67400;49.360;8.266;2023-02-18T07:20:31;8.30;;;5.43;;
78156;SDS011;67400;49.360;8.266;2023-02-18T07:21:51;8.25;;;5.03;;
78156;SDS011;67400;49.360;8.266;2023-02-18T07:23:12;7.22;;;5.10;;
78156;SDS011;67400;49.360;8.266;2023-02-18T07:24:31;9.55;;;4.85;;
78156;SDS011;67400;49.360;8.266;2023-02-18T07:25:51;6.55;;;4.68;;
78156;SDS011;67400;49.360;8.266;2023-02-18T07:27:10;7.55;;;4.78;;
78156;SDS011;67400;49.360;8.266;2023-02-18T07:28:30;6.38;;;4.55;;
78156;SDS011;67400;49.360;8.266;2023-02-18T07:29:49;6.43;;;4.40;;
78156;SDS011;67400;49.360;8.266;2023-02-18T07:31:09;6.30;;;3.95;;
78156;SDS011;67400;49.360;8.266;2023-02-18T07:32:29;8.35;;;5.13;;
78156;SDS011;67400;49.360;8.266;2023-02-18T07:33:49;8.48;;;4.68;;
78156;SDS011;67400;49.360;8.266;2023-02-18T07:35:09;7.32;;;4.32;;
78156;SDS011;67400;49.360;8.266;2023-02-18T07:36:29;7.03;;;4.63;;
78156;SDS011;67400;49.360;8.266;2023-02-18T07:37:49;6.38;;;4.50;;
78156;SDS011;67400;49.360;8.266;2023-02-18T07:39:09;7.85;;;4.57;;
78156;SDS011;67400;49.360;8.266;2023-02-18T07:40:28;5.95;;;4.45;;
78156;SDS011;67400;49.360;8.266;2023-02-18T07:41:48;6.35;;;4.53;;
78156;SDS011;67400;49.360;8.266;2023-02-18T07:43:08;7.43;;;4.57;;
78156;SDS011;67400;49.360;8.266;2023-02-18T07:44:28;8.80;;;5.18;;
78156;SDS011;67400;49.360;8.266;2023-02-18T07:45:48;6.05;;;4.05;;
78156;SDS011;67400;49.360;8.266;2023-02-18T07:47:09;6.65;;;4.80;;
78156;SDS011;67400;49.360;8.266;2023-02-18T07:48:31;8.35;;;5.57;;
78156;SDS011;67400;49.360;8.266;2023-02-18T07:49:53;5.47;;;4.20;;
78156;SDS011;67400;49.360;8.266;2023-02-18T07:51:13;8.18;;;4.75;;
78156;SDS011;67400;49.360;8.266;2023-02-18T07:52:32;6.15;;;4.30;;
78156;SDS011;67400;49.360;8.266;2023-02-18T07:53:52;9.18;;;4.40;;
78156;SDS011;67400;49.360;8.266;2023-02-18T07:55:12;6.60;;;4.57;;
78156;SDS011;67400;49.360;8.266;2023-02-18T07:56:31;6.32;;;4.47;;
78156;SDS011;67400;49.360;8.266;2023-02-18T07:57:51;8.77;;;4.75;;
78156;SDS011;67400;49.360;8.266;2023-02-18T07:59:18;6.20;;;4.28;;
78156;SDS011;67400;49.360;8.266;2023-02-18T08:00:38;5.68;;;4.25;;
78156;SDS011;67400;49.360;8.266;2023-02-18T08:01:58;5.40;;;4.00;;
78156;SDS011;67400;49.360;8.266;2023-02-18T08:03:18;8.27;;;4.38;;
78156;SDS011;67400;49.360;8.266;2023-02-18T08:04:38;6.50;;;4.50;;
78156;SDS011;67400;49.360;8.266;2023-02-18T08:05:57;6.88;;;4.43;;
78156;SDS011;67400;49.360;8.266;2023-02-18T08:07:17;7.15;;;4.75;;
78156;SDS011;67400;49.360;8.266;2023-02-18T08:08:41;8.40;;;5.50;;
78156;SDS011;67400;49.360;8.266;2023-02-18T08:10:00;7.50;;;5.13;;
78156;SDS011;67400;49.360;8.266;2023-02-18T08:11:20;6.70;;;4.72;;
78156;SDS011;67400;49.360;8.266;2023-02-18T08:12:42;6.95;;;4.80;;
78156;SDS011;67400;49.360;8.266;2023-02-18T08:14:01;8.68;;;5.03;;
78156;SDS011;67400;49.360;8.266;2023-02-18T08:15:25;8.65;;;4.75;;
78156;SDS011;67400;49.360;8.266;2023-02-18T08:16:44;6.95;;;4.78;;
78156;SDS011;67400;49.360;8.266;2023-02-18T08:18:05;8.13;;;4.80;;
78156;SDS011;67400;49.360;8.266;2023-02-18T08:19:25;6.43;;;4.75;;
78156;SDS011;67400;49.360;8.266;2023-02-18T08:20:45;6.10;;;4.45;;
78156;SDS011;67400;49.360;8.266;2023-02-18T08:22:05;7.50;;;4.78;;
78156;SDS011;67400;49.360;8.266;2023-02-18T08:23:27;6.93;;;4.30;;
78156;SDS011;67400;49.360;8.266;2023-02-18T08:24:47;7.18;;;4.45;;
78156;SDS011;67400;49.360;8.266;2023-02-18T08:26:07;6.57;;;4.82;;
78156;SDS011;67400;49.360;8.266;2023-02-18T08:27:33;9.73;;;4.88;;
78156;SDS011;67400;49.360;8.266;2023-02-18T08:28:54;6.78;;;4.70;;
78156;SDS011;67400;49.360;8.266;2023-02-18T08:30:14;7.95;;;4.82;;
78156;SDS011;67400;49.360;8.266;2023-02-18T08:31:34;7.93;;;5.03;;
78156;SDS011;67400;49.360;8.266;2023-02-18T08:32:53;8.93;;;5.22;;
78156;SDS011;67400;49.360;8.266;2023-02-18T08:34:14;9.95;;;6.05;;
78156;SDS011;67400;49.360;8.266;2023-02-18T08:35:34;9.60;;;5.15;;
78156;SDS011;67400;49.360;8.266;2023-02-18T08:36:53;6.28;;;4.57;;